createdAt,value
2022-10-26T00:01:04.251Z,11.70
2022-10-26T00:03:31.023Z,11.70
2022-10-26T00:06:04.109Z,11.70
2022-10-26T00:08:30.852Z,11.70
2022-10-26T00:10:57.881Z,11.70
2022-10-26T00:13:24.555Z,11.70
2022-10-26T00:15:51.283Z,11.60
2022-10-26T00:18:18.058Z,11.70
2022-10-26T00:20:44.736Z,11.70
2022-10-26T00:23:11.426Z,11.60
2022-10-26T00:25:38.441Z,11.60
2022-10-26T00:28:05.159Z,11.70
2022-10-26T00:30:32.026Z,11.70
2022-10-26T00:32:58.723Z,11.70
2022-10-26T00:35:44.455Z,11.60
2022-10-26T00:38:11.545Z,11.60
2022-10-26T00:40:38.240Z,11.60
2022-10-26T00:43:13.610Z,11.60
2022-10-26T00:45:40.471Z,11.70
2022-10-26T00:48:11.309Z,11.60
2022-10-26T00:50:43.077Z,11.70
2022-10-26T00:53:11.190Z,11.70
2022-10-26T00:55:41.854Z,11.60
2022-10-26T00:58:10.647Z,11.70
2022-10-26T01:00:39.204Z,11.70
2022-10-26T01:03:08.482Z,11.60
2022-10-26T01:05:39.729Z,11.60
2022-10-26T01:08:08.415Z,11.60
2022-10-26T01:10:37.955Z,11.60
2022-10-26T01:13:05.380Z,11.70
2022-10-26T01:15:46.924Z,11.70
2022-10-26T01:18:28.469Z,11.70
2022-10-26T01:21:19.392Z,11.70
2022-10-26T01:23:58.099Z,11.70
2022-10-26T01:26:27.844Z,11.70
2022-10-26T01:29:15.712Z,11.80
2022-10-26T01:31:56.028Z,11.80
2022-10-26T01:34:32.362Z,11.80
2022-10-26T01:37:05.144Z,11.80
2022-10-26T01:39:43.794Z,11.80
2022-10-26T01:42:13.717Z,11.80
2022-10-26T01:44:48.334Z,11.80
2022-10-26T01:47:17.422Z,11.90
2022-10-26T01:49:49.616Z,11.90
2022-10-26T01:52:19.032Z,11.90
2022-10-26T01:54:45.745Z,11.90
2022-10-26T01:57:17.782Z,11.90
2022-10-26T02:00:02.650Z,11.90
2022-10-26T02:02:51.451Z,11.90
2022-10-26T02:05:36.775Z,11.90
2022-10-26T02:08:18.373Z,12.00
2022-10-26T02:10:48.125Z,12.00
2022-10-26T02:13:34.000Z,12.10
2022-10-26T02:16:23.737Z,12.10
2022-10-26T02:18:52.564Z,12.20
2022-10-26T02:21:28.104Z,12.20
2022-10-26T02:23:58.269Z,12.30
2022-10-26T02:26:28.568Z,12.30
2022-10-26T02:28:59.995Z,12.30
2022-10-26T02:31:27.577Z,12.40
2022-10-26T02:33:57.906Z,12.40
2022-10-26T02:36:29.080Z,12.50
2022-10-26T02:38:57.165Z,12.50
2022-10-26T02:41:27.670Z,12.50
2022-10-26T02:44:02.405Z,12.50
2022-10-26T02:46:29.381Z,12.50
2022-10-26T02:48:56.793Z,12.50
2022-10-26T02:51:23.429Z,12.50
2022-10-26T02:53:53.130Z,12.50
2022-10-26T02:56:35.910Z,12.50
2022-10-26T02:59:05.973Z,12.60
2022-10-26T03:01:34.520Z,12.60
2022-10-26T03:04:01.556Z,12.60
2022-10-26T03:06:28.364Z,12.60
2022-10-26T03:08:55.129Z,12.70
2022-10-26T03:11:21.842Z,12.70
2022-10-26T03:13:48.545Z,12.70
2022-10-26T03:16:15.185Z,12.80
2022-10-26T03:18:41.912Z,12.80
2022-10-26T03:21:08.811Z,12.90
2022-10-26T03:23:35.561Z,12.90
2022-10-26T03:26:02.235Z,13.00
2022-10-26T03:28:28.968Z,13.00
2022-10-26T03:30:55.639Z,13.10
2022-10-26T03:33:25.596Z,13.20
2022-10-26T03:35:56.702Z,13.20
2022-10-26T03:38:23.733Z,13.20
2022-10-26T03:40:50.432Z,13.20
2022-10-26T03:43:17.303Z,13.30
2022-10-26T03:45:43.993Z,13.30
2022-10-26T03:48:10.770Z,13.40
2022-10-26T03:50:37.500Z,13.40
2022-10-26T03:53:04.550Z,13.50
2022-10-26T03:55:31.251Z,13.50
2022-10-26T03:57:57.966Z,13.50
2022-10-26T04:00:24.978Z,13.50
2022-10-26T04:02:57.140Z,13.60
2022-10-26T04:05:24.853Z,13.60
2022-10-26T04:07:59.186Z,13.60
2022-10-26T04:10:27.198Z,13.70
2022-10-26T04:12:54.682Z,13.70
2022-10-26T04:15:22.389Z,13.70
2022-10-26T04:17:54.943Z,13.80
2022-10-26T04:20:21.632Z,13.80
2022-10-26T04:22:48.280Z,13.90
2022-10-26T04:25:14.998Z,13.90
2022-10-26T04:27:41.685Z,13.90
2022-10-26T04:30:09.979Z,13.90
2022-10-26T04:32:36.751Z,13.90
2022-10-26T04:35:03.538Z,14.00
2022-10-26T04:37:30.351Z,14.10
2022-10-26T04:39:57.103Z,14.00
2022-10-26T04:42:23.858Z,14.10
2022-10-26T04:44:50.545Z,14.10
2022-10-26T04:47:17.284Z,14.10
2022-10-26T04:49:43.973Z,14.20
2022-10-26T04:52:10.631Z,14.20
2022-10-26T04:54:37.282Z,14.20
2022-10-26T04:57:04.003Z,14.30
2022-10-26T04:59:30.708Z,14.40
2022-10-26T05:01:59.779Z,14.50
2022-10-26T05:04:26.574Z,14.50
2022-10-26T05:06:53.948Z,14.50
2022-10-26T05:09:20.674Z,14.50
2022-10-26T05:11:47.384Z,14.60
2022-10-26T05:14:14.080Z,14.50
2022-10-26T05:16:40.912Z,14.60
2022-10-26T05:19:07.580Z,14.60
2022-10-26T05:21:34.300Z,14.60
2022-10-26T05:24:01.118Z,14.60
2022-10-26T05:26:28.215Z,14.70
2022-10-26T05:28:54.959Z,14.70
2022-10-26T05:31:21.924Z,14.70
2022-10-26T05:33:50.412Z,14.70
2022-10-26T05:36:20.754Z,14.70
2022-10-26T05:38:47.639Z,14.80
2022-10-26T05:41:14.347Z,14.80
2022-10-26T05:43:41.056Z,14.70
2022-10-26T05:46:07.775Z,14.70
2022-10-26T05:48:34.493Z,14.80
2022-10-26T05:51:01.698Z,14.70
2022-10-26T05:53:28.720Z,14.70
2022-10-26T05:55:56.649Z,14.70
2022-10-26T05:58:24.103Z,14.70
2022-10-26T06:00:56.534Z,14.70
2022-10-26T06:03:44.326Z,14.70
2022-10-26T06:06:12.965Z,14.70
2022-10-26T06:08:39.943Z,14.70
2022-10-26T06:11:07.839Z,14.70
2022-10-26T06:13:34.973Z,14.70
2022-10-26T06:16:18.496Z,14.60
2022-10-26T06:18:51.125Z,14.60
2022-10-26T06:21:25.136Z,14.60
2022-10-26T06:24:12.944Z,14.60
2022-10-26T06:27:03.240Z,14.60
2022-10-26T06:30:01.968Z,14.60
2022-10-26T06:32:29.259Z,14.50
2022-10-26T06:35:21.754Z,14.50
2022-10-26T06:37:49.539Z,14.50
2022-10-26T06:40:17.644Z,14.50
2022-10-26T06:42:44.796Z,14.50
2022-10-26T06:47:53.617Z,14.60
2022-10-26T06:50:39.253Z,14.60
2022-10-26T06:53:30.961Z,14.60
2022-10-26T06:56:01.534Z,14.70
2022-10-26T06:58:32.972Z,14.60
2022-10-26T07:01:00.070Z,14.70
2022-10-26T07:03:26.794Z,14.80
2022-10-26T07:05:53.632Z,14.80
2022-10-26T07:08:20.313Z,14.80
2022-10-26T07:10:47.507Z,14.80
2022-10-26T07:13:14.552Z,14.80
2022-10-26T07:15:42.880Z,14.80
2022-10-26T07:18:10.039Z,14.90
2022-10-26T07:20:39.284Z,14.90
2022-10-26T07:23:07.786Z,15.00
2022-10-26T07:25:35.543Z,15.00
2022-10-26T07:28:02.278Z,15.00
2022-10-26T07:30:30.135Z,15.00
2022-10-26T07:33:05.112Z,15.10
2022-10-26T07:35:33.763Z,15.10
2022-10-26T07:38:01.261Z,15.10
2022-10-26T07:40:28.516Z,15.10
2022-10-26T07:43:00.042Z,15.20
2022-10-26T07:45:28.541Z,15.20
2022-10-26T07:47:56.088Z,15.20
2022-10-26T07:50:23.525Z,15.20
2022-10-26T07:52:51.031Z,15.30
2022-10-26T07:55:18.136Z,15.40
2022-10-26T07:57:44.853Z,15.40
2022-10-26T08:00:12.709Z,15.40
2022-10-26T08:02:39.470Z,15.40
2022-10-26T08:05:06.524Z,15.40
2022-10-26T08:07:33.196Z,15.50
2022-10-26T08:10:00.787Z,15.50
2022-10-26T08:12:27.486Z,15.50
2022-10-26T08:14:54.244Z,15.50
2022-10-26T08:17:21.555Z,15.60
2022-10-26T08:19:49.528Z,15.60
2022-10-26T08:22:16.472Z,15.70
2022-10-26T08:24:46.598Z,15.70
2022-10-26T08:27:14.928Z,15.80
2022-10-26T08:29:42.376Z,15.90
2022-10-26T08:32:09.050Z,16.00
2022-10-26T08:34:35.853Z,16.00
2022-10-26T08:37:02.650Z,16.10
2022-10-26T08:39:30.595Z,16.10
2022-10-26T08:42:22.170Z,16.10
2022-10-26T08:44:58.217Z,16.10
2022-10-26T08:47:34.284Z,16.10
2022-10-26T08:50:06.394Z,16.10
2022-10-26T08:52:47.341Z,16.10
2022-10-26T08:55:17.974Z,16.20
2022-10-26T08:57:48.345Z,16.20
2022-10-26T09:00:21.453Z,16.30
2022-10-26T09:02:52.987Z,16.40
2022-10-26T09:05:37.159Z,16.50
2022-10-26T09:08:12.053Z,16.60
2022-10-26T09:10:59.712Z,16.60
2022-10-26T09:13:43.635Z,16.60
2022-10-26T09:16:19.591Z,16.70
2022-10-26T09:19:19.601Z,16.80
2022-10-26T09:22:19.618Z,16.90
2022-10-26T09:25:05.467Z,17.10
2022-10-26T09:27:43.738Z,17.20
2022-10-26T09:30:18.930Z,17.20
2022-10-26T09:32:49.323Z,17.40
2022-10-26T09:35:31.337Z,17.50
2022-10-26T09:38:06.336Z,17.60
2022-10-26T09:40:48.296Z,17.70
2022-10-26T09:43:20.151Z,17.80
2022-10-26T09:45:51.520Z,17.90
2022-10-26T09:48:38.876Z,17.90
2022-10-26T09:51:06.855Z,17.90
2022-10-26T09:53:33.984Z,18.00
2022-10-26T09:56:10.494Z,18.00
2022-10-26T09:58:50.136Z,18.10
2022-10-26T10:01:30.160Z,17.90
2022-10-26T10:04:20.099Z,17.90
2022-10-26T10:07:03.315Z,17.80
2022-10-26T10:09:29.999Z,17.80
2022-10-26T10:11:59.439Z,17.80
2022-10-26T10:14:39.829Z,18.00
2022-10-26T10:17:19.472Z,18.20
2022-10-26T10:19:46.408Z,18.30
2022-10-26T10:22:23.754Z,18.10
2022-10-26T10:24:56.168Z,18.00
2022-10-26T10:27:23.953Z,17.90
2022-10-26T10:29:53.122Z,18.00
2022-10-26T10:32:34.072Z,18.20
2022-10-26T10:35:23.665Z,18.30
2022-10-26T10:37:51.293Z,18.50
2022-10-26T10:40:21.609Z,18.50
2022-10-26T10:42:50.436Z,18.60
2022-10-26T10:45:26.208Z,18.70
2022-10-26T10:48:12.339Z,19.00
2022-10-26T10:50:59.638Z,19.00
2022-10-26T10:53:45.183Z,18.90
2022-10-26T10:56:47.273Z,18.90
2022-10-26T10:59:26.854Z,19.00
2022-10-26T11:02:12.328Z,19.20
2022-10-26T11:04:41.850Z,19.40
2022-10-26T11:07:11.213Z,19.50
2022-10-26T11:09:44.438Z,19.50
2022-10-26T11:12:22.288Z,19.30
2022-10-26T11:15:03.323Z,19.30
2022-10-26T11:17:41.854Z,19.30
2022-10-26T11:20:29.618Z,19.30
2022-10-26T11:23:00.184Z,19.30
2022-10-26T11:25:29.890Z,19.40
2022-10-26T11:28:19.811Z,19.30
2022-10-26T11:30:54.765Z,19.30
2022-10-26T11:33:34.296Z,19.40
2022-10-26T11:36:12.157Z,19.50
2022-10-26T11:39:16.317Z,19.50
2022-10-26T11:41:53.261Z,19.70
2022-10-26T11:44:29.665Z,19.80
2022-10-26T11:47:02.468Z,19.80
2022-10-26T11:50:00.752Z,19.90
2022-10-26T11:52:39.715Z,20.00
2022-10-26T11:55:10.293Z,20.00
2022-10-26T11:57:37.434Z,20.10
2022-10-26T12:00:20.616Z,20.20
2022-10-26T12:03:01.925Z,20.30
2022-10-26T12:05:40.767Z,20.40
2022-10-26T12:08:32.162Z,20.50
2022-10-26T12:11:09.781Z,20.70
2022-10-26T12:13:50.664Z,21.00
2022-10-26T12:16:28.155Z,21.10
2022-10-26T12:19:01.152Z,20.90
2022-10-26T12:21:30.134Z,20.80
2022-10-26T12:24:23.724Z,20.90
2022-10-26T12:27:00.288Z,20.80
2022-10-26T12:29:30.158Z,20.70
2022-10-26T12:31:57.466Z,20.60
2022-10-26T12:34:30.252Z,20.60
2022-10-26T12:36:56.944Z,20.50
2022-10-26T12:39:31.464Z,20.60
2022-10-26T12:42:00.144Z,20.80
2022-10-26T12:44:38.100Z,20.90
2022-10-26T12:47:05.504Z,21.10
2022-10-26T12:50:06.582Z,21.20
2022-10-26T12:52:48.548Z,21.20
2022-10-26T12:55:42.718Z,21.20
2022-10-26T12:58:37.099Z,21.20
2022-10-26T13:01:04.192Z,21.20
2022-10-26T13:03:59.720Z,21.10
2022-10-26T13:06:29.460Z,21.10
2022-10-26T13:08:58.993Z,21.00
2022-10-26T13:11:38.341Z,21.10
2022-10-26T13:14:16.229Z,21.20
2022-10-26T13:16:45.893Z,21.20
2022-10-26T13:19:43.454Z,21.00
2022-10-26T13:22:20.245Z,20.80
2022-10-26T13:24:54.622Z,20.80
2022-10-26T13:27:40.537Z,21.00
2022-10-26T13:30:17.373Z,21.00
2022-10-26T13:32:55.562Z,21.10
2022-10-26T13:35:24.532Z,21.30
2022-10-26T13:37:54.361Z,21.50
2022-10-26T13:40:24.621Z,21.70
2022-10-26T13:43:02.404Z,21.60
2022-10-26T13:45:32.199Z,21.90
2022-10-26T13:48:16.780Z,22.20
2022-10-26T13:50:53.188Z,22.40
2022-10-26T13:53:19.850Z,22.60
2022-10-26T13:56:03.889Z,22.50
2022-10-26T13:58:40.705Z,22.50
2022-10-26T14:01:11.481Z,22.40
2022-10-26T14:03:39.362Z,22.40
2022-10-26T14:06:28.662Z,22.30
2022-10-26T14:09:00.066Z,22.20
2022-10-26T14:11:44.179Z,22.00
2022-10-26T14:14:24.077Z,21.90
2022-10-26T14:16:52.389Z,21.90
2022-10-26T14:19:28.040Z,21.90
2022-10-26T14:21:55.897Z,21.90
2022-10-26T14:24:47.215Z,21.90
2022-10-26T14:27:20.048Z,21.90
2022-10-26T14:29:58.514Z,21.90
2022-10-26T14:32:34.007Z,21.70
2022-10-26T14:35:00.859Z,21.70
2022-10-26T14:37:35.426Z,21.60
2022-10-26T14:40:03.220Z,21.70
2022-10-26T14:42:33.716Z,21.70
2022-10-26T14:45:01.789Z,21.50
2022-10-26T14:47:33.777Z,21.30
2022-10-26T14:50:01.749Z,21.20
2022-10-26T14:52:36.503Z,21.00
2022-10-26T14:55:15.255Z,20.80
2022-10-26T14:57:44.628Z,20.70
2022-10-26T15:00:19.145Z,20.60
2022-10-26T15:05:34.802Z,20.50
2022-10-26T15:08:03.389Z,20.50
2022-10-26T15:10:36.378Z,20.40
2022-10-26T15:13:25.000Z,20.30
2022-10-26T15:15:56.062Z,20.30
2022-10-26T15:18:30.225Z,20.20
2022-10-26T15:20:57.700Z,20.10
2022-10-26T15:23:27.790Z,20.00
2022-10-26T15:26:02.779Z,20.00
2022-10-26T15:28:36.525Z,19.90
2022-10-26T15:31:12.654Z,19.90
2022-10-26T15:33:40.856Z,19.80
2022-10-26T15:36:12.458Z,19.70
2022-10-26T15:38:39.353Z,19.60
2022-10-26T15:41:30.119Z,19.60
2022-10-26T15:43:57.797Z,19.50
2022-10-26T15:46:28.949Z,19.40
2022-10-26T15:48:58.172Z,19.40
2022-10-26T15:51:25.210Z,19.30
2022-10-26T15:53:52.478Z,19.20
2022-10-26T15:56:23.376Z,19.20
2022-10-26T15:58:50.538Z,19.10
2022-10-26T16:01:21.290Z,19.00
2022-10-26T16:03:48.166Z,19.00
2022-10-26T16:06:25.050Z,18.90
2022-10-26T16:08:53.727Z,18.80
2022-10-26T16:11:20.391Z,18.70
2022-10-26T16:13:47.236Z,18.70
2022-10-26T16:16:16.084Z,18.60
2022-10-26T16:18:43.758Z,18.50
2022-10-26T16:21:14.850Z,18.50
2022-10-26T16:23:42.245Z,18.40
2022-10-26T16:26:09.402Z,18.40
2022-10-26T16:28:36.773Z,18.30
2022-10-26T16:31:10.478Z,18.20
2022-10-26T16:33:37.412Z,18.20
2022-10-26T16:36:05.858Z,18.10
2022-10-26T16:38:33.392Z,18.10
2022-10-26T16:41:13.427Z,18.10
2022-10-26T16:43:42.249Z,18.00
2022-10-26T16:46:17.600Z,18.00
2022-10-26T16:48:46.783Z,18.00
2022-10-26T16:51:18.245Z,17.90
2022-10-26T16:53:48.098Z,17.90
2022-10-26T16:56:17.451Z,17.90
2022-10-26T16:58:44.144Z,17.90
2022-10-26T17:01:13.020Z,17.80
2022-10-26T17:03:40.130Z,17.80
2022-10-26T17:06:07.747Z,17.80
2022-10-26T17:08:36.024Z,17.80
2022-10-26T17:11:05.906Z,17.70
2022-10-26T17:13:32.824Z,17.70
2022-10-26T17:16:07.874Z,17.70
2022-10-26T17:18:34.616Z,17.60
2022-10-26T17:21:01.633Z,17.60
2022-10-26T17:23:30.954Z,17.60
2022-10-26T17:26:02.052Z,17.60
2022-10-26T17:28:28.914Z,17.50
2022-10-26T17:31:14.935Z,17.50
2022-10-26T17:33:43.387Z,17.50
2022-10-26T17:36:12.013Z,17.50
2022-10-26T17:38:40.695Z,17.50
2022-10-26T17:41:10.978Z,17.50
2022-10-26T17:43:39.200Z,17.40
2022-10-26T17:46:09.612Z,17.40
2022-10-26T17:48:36.527Z,17.40
2022-10-26T17:51:06.891Z,17.40
2022-10-26T17:53:33.802Z,17.30
2022-10-26T17:56:05.161Z,17.30
2022-10-26T17:58:33.579Z,17.30
2022-10-26T18:01:02.244Z,17.20
2022-10-26T18:03:28.984Z,17.20
2022-10-26T18:05:55.856Z,17.20
2022-10-26T18:08:22.849Z,17.10
2022-10-26T18:10:58.627Z,17.10
2022-10-26T18:13:29.047Z,17.10
2022-10-26T18:15:55.789Z,17.10
2022-10-26T18:18:22.517Z,17.10
2022-10-26T18:20:49.244Z,17.10
2022-10-26T18:23:15.922Z,17.00
2022-10-26T18:25:42.663Z,17.00
2022-10-26T18:28:09.418Z,16.90
2022-10-26T18:30:36.161Z,16.90
2022-10-26T18:33:02.929Z,17.00
2022-10-26T18:35:31.578Z,16.90
2022-10-26T18:37:58.349Z,16.90
2022-10-26T18:40:25.033Z,16.80
2022-10-26T18:42:51.719Z,16.80
2022-10-26T18:45:18.410Z,16.80
2022-10-26T18:47:45.134Z,16.80
2022-10-26T18:50:11.891Z,16.80
2022-10-26T18:52:38.633Z,16.70
2022-10-26T18:55:06.674Z,16.70
2022-10-26T18:57:33.466Z,16.70
2022-10-26T19:00:00.247Z,16.70
2022-10-26T19:02:26.907Z,16.70
2022-10-26T19:04:54.120Z,16.60
2022-10-26T19:07:21.039Z,16.60
2022-10-26T19:09:49.143Z,16.60
2022-10-26T19:12:15.898Z,16.50
2022-10-26T19:14:47.201Z,16.50
2022-10-26T19:17:14.011Z,16.40
2022-10-26T19:19:40.794Z,16.40
2022-10-26T19:22:07.785Z,16.40
2022-10-26T19:24:34.534Z,16.40
2022-10-26T19:27:01.308Z,16.30
2022-10-26T19:29:28.129Z,16.30
2022-10-26T19:31:55.090Z,16.30
2022-10-26T19:34:21.940Z,16.30
2022-10-26T19:36:48.867Z,16.30
2022-10-26T19:39:16.974Z,16.20
2022-10-26T19:41:44.953Z,16.30
2022-10-26T19:44:12.491Z,16.20
2022-10-26T19:46:39.845Z,16.20
2022-10-26T19:49:07.222Z,16.20
2022-10-26T19:51:34.215Z,16.20
2022-10-26T19:54:04.046Z,16.20
2022-10-26T19:56:32.577Z,16.20
2022-10-26T19:58:59.813Z,16.20
2022-10-26T20:01:26.897Z,16.30
2022-10-26T20:03:53.880Z,16.30
2022-10-26T20:06:20.882Z,16.30
2022-10-26T20:08:49.096Z,16.30
2022-10-26T20:11:17.371Z,16.30
2022-10-26T20:13:45.633Z,16.30
2022-10-26T20:16:13.405Z,16.20
2022-10-26T20:18:44.083Z,16.20
2022-10-26T20:21:16.160Z,16.10
2022-10-26T20:23:44.240Z,16.20
2022-10-26T20:26:18.126Z,16.10
2022-10-26T20:28:47.545Z,16.10
2022-10-26T20:31:14.723Z,16.00
2022-10-26T20:33:41.599Z,16.00
2022-10-26T20:36:08.588Z,16.00
2022-10-26T20:38:35.925Z,16.00
2022-10-26T20:41:06.222Z,16.00
2022-10-26T20:43:39.240Z,15.90
2022-10-26T20:46:10.531Z,15.90
2022-10-26T20:48:38.722Z,15.90
2022-10-26T20:51:19.707Z,15.80
2022-10-26T20:54:05.139Z,15.80
2022-10-26T20:56:33.097Z,15.80
2022-10-26T20:59:01.374Z,15.80
2022-10-26T21:01:30.650Z,15.80
2022-10-26T21:03:59.120Z,15.80
2022-10-26T21:06:26.765Z,15.70
2022-10-26T21:08:54.958Z,15.80
2022-10-26T21:11:23.323Z,15.80
2022-10-26T21:13:52.006Z,15.80
2022-10-26T21:16:18.896Z,15.80
2022-10-26T21:18:45.724Z,15.80
2022-10-26T21:21:12.793Z,15.80
2022-10-26T21:23:41.222Z,15.80
2022-10-26T21:26:08.769Z,15.80
2022-10-26T21:28:37.690Z,15.80
2022-10-26T21:31:06.657Z,15.90
2022-10-26T21:33:33.956Z,15.80
2022-10-26T21:36:01.899Z,15.80
2022-10-26T21:38:29.568Z,15.80
2022-10-26T21:41:09.635Z,15.80
2022-10-26T21:43:37.926Z,15.80
2022-10-26T21:46:05.531Z,15.70
2022-10-26T21:48:33.452Z,15.80
2022-10-26T21:51:05.278Z,15.80
2022-10-26T21:53:32.279Z,15.80
2022-10-26T21:56:00.889Z,15.80
2022-10-26T21:58:28.202Z,15.80
2022-10-26T22:00:54.910Z,15.80
2022-10-26T22:03:21.643Z,15.80
2022-10-26T22:05:54.249Z,15.70
2022-10-26T22:08:21.810Z,15.70
2022-10-26T22:10:48.534Z,15.70
2022-10-26T22:13:15.354Z,15.70
2022-10-26T22:15:42.314Z,15.60
2022-10-26T22:18:09.086Z,15.70
2022-10-26T22:20:35.793Z,15.70
2022-10-26T22:25:32.539Z,15.70
2022-10-26T22:27:59.486Z,15.70
2022-10-26T22:30:26.211Z,15.70
2022-10-26T22:32:53.090Z,15.70
2022-10-26T22:35:35.316Z,15.70
2022-10-26T22:38:02.022Z,15.70
2022-10-26T22:40:28.711Z,15.70
2022-10-26T22:42:55.400Z,15.70
2022-10-26T22:45:22.051Z,15.80
2022-10-26T22:47:48.759Z,15.80
2022-10-26T22:50:15.537Z,15.80
2022-10-26T22:52:42.181Z,15.80
2022-10-26T22:55:09.010Z,15.80
2022-10-26T22:57:35.733Z,15.80
2022-10-26T23:00:02.412Z,15.90
2022-10-26T23:02:29.178Z,15.90
2022-10-26T23:04:55.864Z,15.80
2022-10-26T23:07:25.995Z,15.90
2022-10-26T23:09:52.782Z,15.80
2022-10-26T23:12:19.488Z,15.80
2022-10-26T23:14:46.159Z,15.80
2022-10-26T23:17:12.850Z,15.70
2022-10-26T23:19:39.550Z,15.70
2022-10-26T23:22:06.237Z,15.70
2022-10-26T23:24:32.887Z,15.60
2022-10-26T23:26:59.553Z,15.60
2022-10-26T23:29:26.193Z,15.60
2022-10-26T23:31:52.970Z,15.60
2022-10-26T23:34:19.688Z,15.50
2022-10-26T23:36:48.080Z,15.50
2022-10-26T23:39:14.724Z,15.40
2022-10-26T23:41:42.037Z,15.40
2022-10-26T23:44:08.782Z,15.40
2022-10-26T23:46:35.457Z,15.40
2022-10-26T23:49:02.303Z,15.40
2022-10-26T23:51:29.021Z,15.30
2022-10-26T23:53:55.686Z,15.20
2022-10-26T23:56:22.356Z,15.20
2022-10-26T23:58:52.002Z,15.20
